createdAt,value
2022-07-28T00:02:14.767Z,34.43
2022-07-28T00:04:43.041Z,34.99
2022-07-28T00:07:12.073Z,34.67
2022-07-28T00:09:40.050Z,35.56
2022-07-28T00:12:09.469Z,35.86
2022-07-28T00:14:37.655Z,35.47
2022-07-28T00:17:05.621Z,36.65
2022-07-28T00:19:34.567Z,36.83
2022-07-28T00:22:06.486Z,38.02
2022-07-28T00:24:34.978Z,37.23
2022-07-28T00:27:03.115Z,36.91
2022-07-28T00:29:49.856Z,36.62
2022-07-28T00:32:20.751Z,36.70
2022-07-28T00:34:53.671Z,36.08
2022-07-28T00:37:22.338Z,35.90
2022-07-28T00:39:50.386Z,35.68
2022-07-28T00:42:19.560Z,35.17
2022-07-28T00:44:47.749Z,34.84
2022-07-28T00:47:16.036Z,34.50
2022-07-28T00:49:45.102Z,33.94
2022-07-28T00:52:17.238Z,33.83
2022-07-28T00:54:45.732Z,33.74
2022-07-28T00:57:15.495Z,33.80
2022-07-28T00:59:43.556Z,33.62
2022-07-28T01:02:11.406Z,33.97
2022-07-28T01:04:40.613Z,33.94
2022-07-28T01:07:15.839Z,34.03
2022-07-28T01:09:58.575Z,34.09
2022-07-28T01:12:32.605Z,33.74
2022-07-28T01:15:13.263Z,33.75
2022-07-28T01:17:44.224Z,33.90
2022-07-28T01:20:19.373Z,34.11
2022-07-28T01:23:02.429Z,34.76
2022-07-28T01:25:48.473Z,34.71
2022-07-28T01:28:38.145Z,36.33
2022-07-28T01:31:09.837Z,36.01
2022-07-28T01:33:48.407Z,35.93
2022-07-28T01:36:31.714Z,35.95
2022-07-28T01:39:03.364Z,35.50
2022-07-28T01:41:38.469Z,34.98
2022-07-28T01:44:13.165Z,35.55
2022-07-28T01:46:44.586Z,35.76
2022-07-28T01:49:19.671Z,36.48
2022-07-28T01:51:51.106Z,35.95
2022-07-28T01:54:25.690Z,35.91
2022-07-28T01:56:57.152Z,36.38
2022-07-28T01:59:26.733Z,36.90
2022-07-28T02:01:56.423Z,36.91
2022-07-28T02:04:25.067Z,37.10
2022-07-28T02:06:54.339Z,37.14
2022-07-28T02:09:23.481Z,37.28
2022-07-28T02:11:53.574Z,37.78
2022-07-28T02:14:26.397Z,38.54
2022-07-28T02:16:57.808Z,38.59
2022-07-28T02:19:25.883Z,38.19
2022-07-28T02:21:54.960Z,39.60
2022-07-28T02:24:28.616Z,39.08
2022-07-28T02:27:00.988Z,38.68
2022-07-28T02:29:50.312Z,38.44
2022-07-28T02:32:34.499Z,39.29
2022-07-28T02:35:12.511Z,39.44
2022-07-28T02:37:44.685Z,38.88
2022-07-28T02:40:15.898Z,38.88
2022-07-28T02:42:46.896Z,40.17
2022-07-28T02:45:17.241Z,39.87
2022-07-28T02:47:49.003Z,40.75
2022-07-28T02:50:21.187Z,40.43
2022-07-28T02:52:50.059Z,41.06
2022-07-28T02:55:19.425Z,41.72
2022-07-28T02:57:50.968Z,42.18
2022-07-28T03:00:23.743Z,42.35
2022-07-28T03:02:53.797Z,42.45
2022-07-28T03:05:22.310Z,42.65
2022-07-28T03:07:52.942Z,42.98
2022-07-28T03:10:33.049Z,43.17
2022-07-28T03:13:03.771Z,42.82
2022-07-28T03:15:31.624Z,42.77
2022-07-28T03:18:01.492Z,43.39
2022-07-28T03:20:31.054Z,44.57
2022-07-28T03:22:59.588Z,45.26
2022-07-28T03:25:39.514Z,45.68
2022-07-28T03:28:09.428Z,43.92
2022-07-28T03:30:42.280Z,43.80
2022-07-28T03:33:12.032Z,43.28
2022-07-28T03:35:48.822Z,43.45
2022-07-28T03:38:23.851Z,43.09
2022-07-28T03:40:56.835Z,42.82
2022-07-28T03:43:26.697Z,42.81
2022-07-28T03:45:55.129Z,43.34
2022-07-28T03:48:29.646Z,43.56
2022-07-28T03:50:58.995Z,42.87
2022-07-28T03:53:28.922Z,43.17
2022-07-28T03:55:57.673Z,43.31
2022-07-28T03:58:28.933Z,43.23
2022-07-28T04:00:57.675Z,43.49
2022-07-28T04:03:37.656Z,43.17
2022-07-28T04:06:13.291Z,42.85
2022-07-28T04:08:43.786Z,42.78
2022-07-28T04:11:11.833Z,42.51
2022-07-28T04:13:40.052Z,42.20
2022-07-28T04:16:09.369Z,42.31
2022-07-28T04:18:37.405Z,42.14
2022-07-28T04:21:07.709Z,42.54
2022-07-28T04:23:36.217Z,42.26
2022-07-28T04:26:04.486Z,42.12
2022-07-28T04:28:33.071Z,42.27
2022-07-28T04:31:01.217Z,42.22
2022-07-28T04:33:30.771Z,42.52
2022-07-28T04:36:01.727Z,42.85
2022-07-28T04:38:30.884Z,42.87
2022-07-28T04:40:59.636Z,41.88
2022-07-28T04:43:27.927Z,41.67
2022-07-28T04:45:56.568Z,43.07
2022-07-28T04:48:25.147Z,43.40
2022-07-28T04:50:53.462Z,43.78
2022-07-28T04:53:24.436Z,44.52
2022-07-28T04:55:54.610Z,43.57
2022-07-28T04:58:24.496Z,43.64
2022-07-28T05:00:52.713Z,42.67
2022-07-28T05:03:21.349Z,42.47
2022-07-28T05:05:54.324Z,42.56
2022-07-28T05:08:25.781Z,42.46
2022-07-28T05:10:56.840Z,42.77
2022-07-28T05:13:33.265Z,42.37
2022-07-28T05:16:03.465Z,43.46
2022-07-28T05:18:31.986Z,42.89
2022-07-28T05:21:00.196Z,42.88
2022-07-28T05:23:29.310Z,43.35
2022-07-28T05:25:57.067Z,43.56
2022-07-28T05:28:27.390Z,42.99
2022-07-28T05:31:03.572Z,43.91
2022-07-28T05:33:39.951Z,43.16
2022-07-28T05:36:40.054Z,42.69
2022-07-28T05:39:08.361Z,42.19
2022-07-28T05:41:36.778Z,41.74
2022-07-28T05:44:05.123Z,41.50
2022-07-28T05:46:33.284Z,41.30
2022-07-28T05:49:06.376Z,41.25
2022-07-28T05:51:41.556Z,41.43
2022-07-28T05:54:10.459Z,41.55
2022-07-28T05:56:38.521Z,41.17
2022-07-28T05:59:10.288Z,40.72
2022-07-28T06:01:46.275Z,40.70
2022-07-28T06:04:28.634Z,40.29
2022-07-28T06:07:22.478Z,40.64
2022-07-28T06:10:13.110Z,41.26
2022-07-28T06:12:56.789Z,41.39
2022-07-28T06:15:28.626Z,41.46
2022-07-28T06:17:57.298Z,41.45
2022-07-28T06:20:45.071Z,41.69
2022-07-28T06:28:37.580Z,41.71
2022-07-28T06:36:03.720Z,41.99
2022-07-28T06:45:54.678Z,40.16
2022-07-28T06:54:59.402Z,37.92
2022-07-28T06:57:33.589Z,37.21
2022-07-28T07:00:04.213Z,36.82
2022-07-28T07:02:37.432Z,37.09
2022-07-28T07:05:06.937Z,36.47
2022-07-28T07:07:37.415Z,37.15
2022-07-28T07:10:08.651Z,36.84
2022-07-28T07:12:45.319Z,36.57
2022-07-28T07:15:16.317Z,34.57
2022-07-28T07:17:44.037Z,33.34
2022-07-28T07:20:14.445Z,33.12
2022-07-28T07:22:47.124Z,33.69
2022-07-28T07:25:19.434Z,33.21
2022-07-28T07:27:52.746Z,32.38
2022-07-28T07:30:21.356Z,32.09
2022-07-28T07:32:50.379Z,32.11
2022-07-28T07:35:19.569Z,32.30
2022-07-28T07:38:04.840Z,32.59
2022-07-28T07:41:04.446Z,32.63
2022-07-28T07:43:42.365Z,32.62
2022-07-28T07:46:22.164Z,32.81
2022-07-28T07:49:02.430Z,32.43
2022-07-28T07:51:31.043Z,32.40
2022-07-28T07:53:59.624Z,32.93
2022-07-28T07:56:28.000Z,32.56
2022-07-28T07:58:57.212Z,32.44
2022-07-28T08:01:26.199Z,32.63
2022-07-28T08:03:55.071Z,32.73
2022-07-28T08:06:26.568Z,32.31
2022-07-28T08:08:56.478Z,32.27
2022-07-28T08:11:24.953Z,32.38
2022-07-28T08:13:58.855Z,32.19
2022-07-28T08:16:29.170Z,32.11
2022-07-28T08:19:11.046Z,31.55
2022-07-28T08:21:46.832Z,31.55
2022-07-28T08:24:33.736Z,31.78
2022-07-28T08:27:20.640Z,31.29
2022-07-28T08:29:59.328Z,31.47
2022-07-28T08:32:41.618Z,31.06
2022-07-28T08:35:32.417Z,30.74
2022-07-28T08:38:06.520Z,30.35
2022-07-28T08:40:39.608Z,29.83
2022-07-28T08:43:21.143Z,29.44
2022-07-28T08:45:50.125Z,29.37
2022-07-28T08:48:23.667Z,29.39
2022-07-28T08:50:52.784Z,28.83
2022-07-28T08:53:31.502Z,29.00
2022-07-28T09:03:22.272Z,27.64
2022-07-28T09:05:54.144Z,27.06
2022-07-28T09:08:22.933Z,26.45
2022-07-28T09:10:51.992Z,26.12
2022-07-28T09:13:24.614Z,26.27
2022-07-28T09:20:17.569Z,25.49
2022-07-28T09:27:14.954Z,25.99
2022-07-28T09:30:15.810Z,26.57
2022-07-28T09:33:41.129Z,26.12
2022-07-28T09:36:31.240Z,25.81
2022-07-28T09:39:04.268Z,25.59
2022-07-28T09:41:49.626Z,24.99
2022-07-28T09:44:27.747Z,24.22
2022-07-28T09:47:28.263Z,23.75
2022-07-28T09:49:56.753Z,23.42
2022-07-28T09:52:32.421Z,23.11
2022-07-28T09:55:05.349Z,22.86
2022-07-28T09:57:36.348Z,23.61
2022-07-28T10:00:09.993Z,23.68
2022-07-28T10:02:47.933Z,23.56
2022-07-28T10:05:20.138Z,23.95
2022-07-28T10:07:52.636Z,23.71
2022-07-28T10:10:29.508Z,23.20
2022-07-28T10:13:06.247Z,23.40
2022-07-28T10:16:10.910Z,23.03
2022-07-28T10:18:42.891Z,22.91
2022-07-28T10:21:14.966Z,22.98
2022-07-28T10:24:09.556Z,22.71
2022-07-28T10:26:53.607Z,22.59
2022-07-28T10:29:22.702Z,22.28
2022-07-28T10:31:53.165Z,22.11
2022-07-28T10:34:31.926Z,21.77
2022-07-28T10:37:03.605Z,21.71
2022-07-28T10:39:40.387Z,21.56
2022-07-28T10:42:13.048Z,21.84
2022-07-28T10:44:48.458Z,21.67
2022-07-28T10:47:32.430Z,21.66
2022-07-28T10:50:08.836Z,21.24
2022-07-28T10:52:50.691Z,21.04
2022-07-28T10:55:43.653Z,21.08
2022-07-28T10:58:28.148Z,22.53
2022-07-28T11:00:59.917Z,23.17
2022-07-28T11:03:37.969Z,22.47
2022-07-28T11:06:26.059Z,21.94
2022-07-28T11:09:01.286Z,22.51
2022-07-28T11:11:48.580Z,22.56
2022-07-28T11:14:27.135Z,22.20
2022-07-28T11:17:15.142Z,21.88
2022-07-28T11:20:16.139Z,21.70
2022-07-28T11:23:28.614Z,21.72
2022-07-28T11:25:40.034Z,21.52
2022-07-28T11:28:08.470Z,21.38
2022-07-28T11:30:42.964Z,21.52
2022-07-28T12:11:36.715Z,23.18
2022-07-28T12:14:17.903Z,23.02
2022-07-28T12:16:50.966Z,22.92
2022-07-28T12:19:40.302Z,23.00
2022-07-28T12:22:31.652Z,22.98
2022-07-28T12:25:14.486Z,22.72
2022-07-28T12:28:01.972Z,22.49
2022-07-28T12:30:33.883Z,22.28
2022-07-28T12:33:03.750Z,22.34
2022-07-28T12:35:41.596Z,22.31
2022-07-28T12:38:14.331Z,21.98
2022-07-28T12:40:46.924Z,21.95
2022-07-28T12:43:30.832Z,22.22
2022-07-28T12:45:58.957Z,22.15
2022-07-28T12:48:28.809Z,22.32
2022-07-28T12:51:04.731Z,22.56
2022-07-28T12:53:35.875Z,22.51
2022-07-28T12:56:05.575Z,22.41
2022-07-28T12:58:34.794Z,22.36
2022-07-28T13:01:09.162Z,21.90
2022-07-28T13:03:50.621Z,22.19
2022-07-28T13:06:22.291Z,22.18
2022-07-28T13:08:54.466Z,22.50
2022-07-28T13:11:47.483Z,21.95
2022-07-28T13:14:16.637Z,21.62
2022-07-28T13:17:02.767Z,21.42
2022-07-28T13:19:31.023Z,21.13
2022-07-28T13:22:04.112Z,21.32
2022-07-28T13:24:35.333Z,21.13
2022-07-28T13:27:07.482Z,21.01
2022-07-28T13:29:35.594Z,20.75
2022-07-28T13:32:05.372Z,20.97
2022-07-28T13:34:34.615Z,21.00
2022-07-28T13:37:04.007Z,20.57
2022-07-28T13:39:38.686Z,20.47
2022-07-28T13:42:07.092Z,20.21
2022-07-28T13:44:39.278Z,20.11
2022-07-28T13:47:12.008Z,19.86
2022-07-28T13:49:46.108Z,19.89
2022-07-28T13:52:32.794Z,20.05
2022-07-28T13:55:06.357Z,20.05
2022-07-28T13:57:36.466Z,19.71
2022-07-28T14:00:07.919Z,19.65
2022-07-28T14:02:37.398Z,19.59
2022-07-28T14:05:06.151Z,19.38
2022-07-28T14:07:34.555Z,19.22
2022-07-28T14:10:03.140Z,19.36
2022-07-28T14:12:31.535Z,20.26
2022-07-28T14:15:00.239Z,20.09
2022-07-28T14:17:45.867Z,20.04
2022-07-28T14:20:15.134Z,20.23
2022-07-28T14:22:44.720Z,19.68
2022-07-28T14:25:19.426Z,19.71
2022-07-28T14:27:52.886Z,19.57
2022-07-28T14:30:21.744Z,19.54
2022-07-28T14:32:50.111Z,19.23
2022-07-28T14:35:18.753Z,19.12
2022-07-28T14:38:23.560Z,18.75
2022-07-28T14:40:39.991Z,18.99
2022-07-28T14:43:08.422Z,18.73
2022-07-28T14:46:09.274Z,18.91
2022-07-28T14:48:25.266Z,18.83
2022-07-28T14:50:55.543Z,18.40
2022-07-28T14:53:24.271Z,18.11
2022-07-28T14:55:56.761Z,18.16
2022-07-28T14:58:24.780Z,18.23
2022-07-28T15:00:52.802Z,18.46
2022-07-28T15:03:21.304Z,18.70
2022-07-28T15:05:49.209Z,18.60
2022-07-28T15:08:18.415Z,18.25
2022-07-28T15:10:50.147Z,18.24
2022-07-28T15:13:18.157Z,18.17
2022-07-28T15:15:46.852Z,17.88
2022-07-28T15:18:15.050Z,17.66
2022-07-28T15:20:43.687Z,18.07
2022-07-28T15:23:11.931Z,18.04
2022-07-28T15:25:39.751Z,18.53
2022-07-28T15:28:08.129Z,18.38
2022-07-28T15:30:36.375Z,18.31
2022-07-28T15:33:11.464Z,18.57
2022-07-28T15:35:56.503Z,18.44
2022-07-28T15:38:29.149Z,18.20
2022-07-28T15:40:59.056Z,18.39
2022-07-28T15:43:28.221Z,19.09
2022-07-28T15:45:58.867Z,19.21
2022-07-28T15:48:29.592Z,19.58
2022-07-28T15:51:00.677Z,19.26
2022-07-28T15:53:30.026Z,19.44
2022-07-28T15:55:58.765Z,19.42
2022-07-28T15:58:28.663Z,19.76
2022-07-28T16:00:56.800Z,19.51
2022-07-28T16:03:30.085Z,19.31
2022-07-28T16:05:59.003Z,19.30
2022-07-28T16:08:27.630Z,19.50
2022-07-28T16:10:56.595Z,19.52
2022-07-28T16:13:36.602Z,19.15
2022-07-28T16:16:11.468Z,19.38
2022-07-28T16:18:41.781Z,19.09
2022-07-28T16:21:13.337Z,19.27
2022-07-28T16:23:40.876Z,19.38
2022-07-28T16:26:09.489Z,19.27
2022-07-28T16:28:38.080Z,19.52
2022-07-28T16:31:06.334Z,19.45
2022-07-28T16:33:35.154Z,19.82
2022-07-28T16:36:04.332Z,19.67
2022-07-28T16:38:32.441Z,19.81
2022-07-28T16:41:00.783Z,19.97
2022-07-28T16:43:29.740Z,19.92
2022-07-28T16:45:57.725Z,19.91
2022-07-28T16:48:26.036Z,19.80
2022-07-28T16:50:54.123Z,19.79
2022-07-28T16:53:22.601Z,19.75
2022-07-28T16:55:51.032Z,19.56
2022-07-28T16:58:20.137Z,19.70
2022-07-28T17:00:48.270Z,19.68
2022-07-28T17:03:17.199Z,19.43
2022-07-28T17:05:45.524Z,19.41
2022-07-28T17:08:13.924Z,19.66
2022-07-28T17:10:42.191Z,19.78
2022-07-28T17:13:13.206Z,19.78
2022-07-28T17:15:41.023Z,19.79
2022-07-28T17:18:08.835Z,19.52
2022-07-28T17:20:40.009Z,19.99
2022-07-28T17:23:08.406Z,19.86
2022-07-28T17:28:25.411Z,20.27
2022-07-28T17:30:53.630Z,20.43
2022-07-28T17:33:21.741Z,20.60
2022-07-28T17:35:52.827Z,20.88
2022-07-28T17:38:28.290Z,21.22
2022-07-28T17:41:00.601Z,21.22
2022-07-28T17:43:29.162Z,21.25
2022-07-28T17:45:57.390Z,21.65
2022-07-28T17:48:26.234Z,21.48
2022-07-28T17:50:54.984Z,21.72
2022-07-28T17:53:23.919Z,21.87
2022-07-28T17:56:00.550Z,21.70
2022-07-28T17:58:32.316Z,21.92
2022-07-28T18:01:11.147Z,22.18
2022-07-28T18:03:59.836Z,22.20
2022-07-28T18:06:34.829Z,22.80
2022-07-28T18:09:07.852Z,22.58
2022-07-28T18:11:57.484Z,23.04
2022-07-28T18:14:27.737Z,23.20
2022-07-28T18:16:56.257Z,23.20
2022-07-28T18:19:24.130Z,23.39
2022-07-28T18:21:52.678Z,23.66
2022-07-28T18:24:22.757Z,24.00
2022-07-28T18:26:51.974Z,23.87
2022-07-28T18:29:21.609Z,24.12
2022-07-28T18:31:51.133Z,24.00
2022-07-28T18:34:20.847Z,23.94
2022-07-28T18:36:54.743Z,23.96
2022-07-28T18:39:25.346Z,24.17
2022-07-28T18:41:56.783Z,24.00
2022-07-28T18:44:24.763Z,24.12
2022-07-28T18:46:53.622Z,24.31
2022-07-28T18:49:21.822Z,24.45
2022-07-28T18:51:50.017Z,25.10
2022-07-28T18:54:25.130Z,25.17
2022-07-28T18:56:56.766Z,25.46
2022-07-28T18:59:25.572Z,25.61
2022-07-28T19:01:53.901Z,25.60
2022-07-28T19:04:22.103Z,25.68
2022-07-28T19:06:50.226Z,25.90
2022-07-28T19:09:18.324Z,25.73
2022-07-28T19:11:46.906Z,26.04
2022-07-28T19:14:16.164Z,25.79
2022-07-28T19:16:44.615Z,26.19
2022-07-28T19:19:13.573Z,26.12
2022-07-28T19:21:43.309Z,26.14
2022-07-28T19:24:15.796Z,25.96
2022-07-28T19:26:47.657Z,26.37
2022-07-28T19:29:16.053Z,26.90
2022-07-28T19:31:45.130Z,27.15
2022-07-28T19:34:13.848Z,27.52
2022-07-28T19:36:42.514Z,28.14
2022-07-28T19:39:12.338Z,28.30
2022-07-28T19:41:40.751Z,28.40
2022-07-28T19:44:09.642Z,28.43
2022-07-28T19:46:39.431Z,28.59
2022-07-28T19:49:08.321Z,29.08
2022-07-28T19:51:40.384Z,29.11
2022-07-28T19:54:08.911Z,28.88
2022-07-28T19:56:39.672Z,28.35
2022-07-28T19:59:08.051Z,28.49
2022-07-28T20:01:36.183Z,28.32
2022-07-28T20:04:16.201Z,28.67
2022-07-28T20:06:44.403Z,28.08
2022-07-28T20:09:13.849Z,27.44
2022-07-28T20:11:43.690Z,28.59
2022-07-28T20:14:11.593Z,29.23
2022-07-28T20:16:40.656Z,29.19
2022-07-28T20:19:12.335Z,28.73
2022-07-28T20:21:42.115Z,29.27
2022-07-28T20:24:13.214Z,29.27
2022-07-28T20:26:43.552Z,29.00
2022-07-28T20:29:15.122Z,29.13
2022-07-28T20:31:44.189Z,29.38
2022-07-28T20:34:15.295Z,30.37
2022-07-28T20:36:45.298Z,30.62
2022-07-28T20:39:42.186Z,31.04
2022-07-28T20:42:02.545Z,31.29
2022-07-28T20:44:31.540Z,31.26
2022-07-28T20:47:00.789Z,30.52
2022-07-28T20:49:29.709Z,30.27
2022-07-28T20:51:58.872Z,30.59
2022-07-28T20:54:27.206Z,30.40
2022-07-28T20:56:55.575Z,30.65
2022-07-28T20:59:27.645Z,30.55
2022-07-28T21:01:56.981Z,31.51
2022-07-28T21:04:26.565Z,32.06
2022-07-28T21:07:01.746Z,31.67
2022-07-28T21:09:31.932Z,31.70
2022-07-28T21:12:00.346Z,31.47
2022-07-28T21:14:28.428Z,32.03
2022-07-28T21:16:57.254Z,31.70
2022-07-28T21:19:25.481Z,31.44
2022-07-28T21:21:53.508Z,31.55
2022-07-28T21:24:22.316Z,31.76
2022-07-28T21:26:51.747Z,31.74
2022-07-28T21:32:04.771Z,31.39
2022-07-28T21:34:35.435Z,31.12
2022-07-28T21:37:05.033Z,31.27
2022-07-28T21:39:34.245Z,30.83
2022-07-28T21:42:07.578Z,31.70
2022-07-28T21:44:37.564Z,31.86
2022-07-28T21:47:06.278Z,31.54
2022-07-28T21:49:34.487Z,31.86
2022-07-28T21:52:02.967Z,31.95
2022-07-28T21:54:31.754Z,31.82
2022-07-28T21:57:00.085Z,33.01
2022-07-28T21:59:28.070Z,33.60
2022-07-28T22:01:57.786Z,33.25
2022-07-28T22:04:27.421Z,33.18
2022-07-28T22:06:55.562Z,33.24
2022-07-28T22:09:24.123Z,33.32
2022-07-28T22:11:53.629Z,33.39
2022-07-28T22:14:26.472Z,33.62
2022-07-28T22:16:55.543Z,33.51
2022-07-28T22:19:26.298Z,33.79
2022-07-28T22:22:01.607Z,34.03
2022-07-28T22:24:32.645Z,34.01
2022-07-28T22:27:04.191Z,34.66
2022-07-28T22:29:33.320Z,34.35
2022-07-28T22:32:08.053Z,34.54
2022-07-28T22:34:39.499Z,34.49
2022-07-28T22:37:13.359Z,34.24
2022-07-28T22:39:44.178Z,34.57
2022-07-28T22:42:16.963Z,34.97
2022-07-28T22:44:47.427Z,34.95
2022-07-28T22:47:20.292Z,35.13
2022-07-28T22:49:53.670Z,35.84
2022-07-28T22:52:28.867Z,36.45
2022-07-28T22:54:59.436Z,35.73
2022-07-28T22:57:34.316Z,35.95
2022-07-28T23:00:09.379Z,36.22
2022-07-28T23:02:40.593Z,36.90
2022-07-28T23:05:10.619Z,36.35
2022-07-28T23:07:52.835Z,36.32
2022-07-28T23:10:27.760Z,36.84
2022-07-28T23:12:58.812Z,36.84
2022-07-28T23:15:40.657Z,36.97
2022-07-28T23:18:14.307Z,37.29
2022-07-28T23:20:45.837Z,37.43
2022-07-28T23:23:18.945Z,38.10
2022-07-28T23:25:48.376Z,38.20
2022-07-28T23:28:18.874Z,38.29
2022-07-28T23:30:51.764Z,38.73
2022-07-28T23:33:56.700Z,38.47
2022-07-28T23:36:25.828Z,39.09
2022-07-28T23:39:00.264Z,38.56
2022-07-28T23:41:29.232Z,38.08
2022-07-28T23:43:58.088Z,38.09
2022-07-28T23:46:26.107Z,38.86
2022-07-28T23:48:54.196Z,39.15
2022-07-28T23:51:46.578Z,39.12
2022-07-28T23:54:11.100Z,38.67
2022-07-28T23:56:43.866Z,39.11
2022-07-28T23:59:14.089Z,38.32
